createdAt,value
2023-01-07T00:03:04.473Z,11.18
2023-01-07T00:08:06.728Z,11.07
2023-01-07T00:13:08.589Z,11.03
2023-01-07T00:18:10.482Z,11.02
2023-01-07T00:23:12.295Z,11.04
2023-01-07T00:28:14.139Z,11.08
2023-01-07T00:33:17.360Z,11.07
2023-01-07T00:38:19.413Z,11.04
2023-01-07T00:43:21.414Z,11.10
2023-01-07T00:48:24.089Z,11.14
2023-01-07T00:53:25.922Z,11.22
2023-01-07T00:58:27.786Z,11.22
2023-01-07T01:03:31.876Z,11.22
2023-01-07T01:08:34.166Z,11.26
2023-01-07T01:13:37.094Z,11.30
2023-01-07T01:18:39.414Z,11.27
2023-01-07T01:23:42.787Z,11.28
2023-01-07T01:28:46.336Z,11.30
2023-01-07T01:33:57.480Z,11.27
2023-01-07T01:38:59.656Z,11.21
2023-01-07T01:44:56.461Z,11.20
2023-01-07T01:50:17.441Z,11.29
2023-01-07T01:55:24.109Z,11.35
2023-01-07T02:00:28.789Z,11.41
2023-01-07T02:05:35.045Z,11.45
2023-01-07T02:10:38.485Z,11.40
2023-01-07T02:15:59.107Z,11.36
2023-01-07T02:21:11.732Z,11.29
2023-01-07T02:26:47.847Z,11.27
2023-01-07T02:32:31.635Z,11.25
2023-01-07T02:37:51.521Z,11.26
2023-01-07T02:43:09.017Z,11.27
2023-01-07T02:48:14.686Z,11.26
2023-01-07T02:53:19.677Z,11.25
2023-01-07T02:58:45.263Z,11.27
2023-01-07T03:04:22.112Z,11.26
2023-01-07T03:09:26.781Z,11.20
2023-01-07T03:14:50.961Z,11.12
2023-01-07T03:19:57.921Z,11.05
2023-01-07T03:25:02.049Z,11.00
2023-01-07T03:30:09.720Z,10.95
2023-01-07T03:35:11.939Z,10.95
2023-01-07T03:40:14.189Z,10.86
2023-01-07T03:45:20.125Z,10.79
2023-01-07T03:50:22.810Z,10.74
2023-01-07T03:55:26.124Z,10.71
2023-01-07T04:00:30.783Z,10.77
2023-01-07T04:05:42.247Z,10.75
2023-01-07T04:10:45.541Z,10.74
2023-01-07T04:15:48.533Z,10.64
2023-01-07T04:20:50.641Z,10.59
2023-01-07T04:25:52.736Z,10.60
2023-01-07T04:31:01.497Z,10.60
2023-01-07T04:36:05.300Z,10.59
2023-01-07T04:41:07.365Z,10.55
2023-01-07T04:46:09.501Z,10.59
2023-01-07T04:51:11.756Z,10.58
2023-01-07T04:56:14.475Z,10.57
2023-01-07T05:01:16.642Z,10.56
2023-01-07T05:06:19.107Z,10.54
2023-01-07T05:11:22.656Z,10.55
2023-01-07T05:16:28.519Z,10.49
2023-01-07T05:21:34.123Z,10.44
2023-01-07T05:26:36.305Z,10.42
2023-01-07T05:31:38.688Z,10.43
2023-01-07T05:36:40.711Z,10.43
2023-01-07T05:41:42.630Z,10.42
2023-01-07T05:46:45.068Z,10.36
2023-01-07T05:51:47.102Z,10.44
2023-01-07T05:56:48.904Z,10.39
2023-01-07T06:01:50.731Z,10.46
2023-01-07T06:06:52.647Z,10.53
2023-01-07T06:11:54.462Z,10.57
2023-01-07T06:16:56.302Z,10.62
2023-01-07T06:21:58.201Z,10.67
2023-01-07T06:27:00.036Z,10.72
2023-01-07T06:32:01.867Z,10.71
2023-01-07T06:37:03.724Z,10.76
2023-01-07T06:42:05.668Z,10.79
2023-01-07T06:47:07.596Z,10.82
2023-01-07T06:52:09.431Z,10.86
2023-01-07T06:57:11.379Z,10.87
2023-01-07T07:02:22.529Z,10.83
2023-01-07T07:07:24.452Z,10.87
2023-01-07T07:12:26.351Z,10.95
2023-01-07T07:17:28.177Z,10.97
2023-01-07T07:22:30.044Z,10.94
2023-01-07T07:27:31.993Z,11.00
2023-01-07T07:32:34.347Z,11.02
2023-01-07T07:37:36.886Z,11.09
2023-01-07T07:43:11.456Z,11.13
2023-01-07T07:48:01.223Z,11.25
2023-01-07T07:53:03.253Z,11.30
2023-01-07T07:58:06.243Z,11.37
2023-01-07T08:03:08.453Z,11.41
2023-01-07T08:08:12.906Z,11.46
2023-01-07T08:13:14.749Z,11.39
2023-01-07T08:18:16.686Z,11.34
2023-01-07T08:23:18.665Z,11.33
2023-01-07T08:28:20.548Z,11.48
2023-01-07T08:33:22.619Z,11.54
2023-01-07T08:38:25.449Z,11.58
2023-01-07T08:43:27.799Z,11.61
2023-01-07T08:48:29.736Z,11.68
2023-01-07T08:53:31.550Z,11.76
2023-01-07T08:58:33.374Z,11.85
2023-01-07T09:03:35.419Z,11.88
2023-01-07T09:08:37.661Z,11.94
2023-01-07T09:13:39.502Z,11.92
2023-01-07T09:18:41.338Z,11.90
2023-01-07T09:23:43.096Z,11.91
2023-01-07T09:28:44.903Z,11.95
2023-01-07T09:33:46.787Z,11.94
2023-01-07T09:38:48.624Z,11.98
2023-01-07T09:44:00.862Z,12.09
2023-01-07T09:49:03.924Z,12.14
2023-01-07T09:54:17.479Z,12.30
2023-01-07T09:59:19.567Z,12.47
2023-01-07T10:04:40.272Z,12.62
2023-01-07T10:09:56.786Z,12.74
2023-01-07T10:14:58.593Z,12.85
2023-01-07T10:20:12.169Z,12.96
2023-01-07T10:25:31.102Z,13.09
2023-01-07T10:30:40.970Z,13.20
2023-01-07T10:35:48.171Z,13.28
2023-01-07T10:40:55.658Z,13.39
2023-01-07T10:46:23.565Z,13.43
2023-01-07T10:52:04.374Z,13.44
2023-01-07T10:57:29.268Z,13.46
2023-01-07T11:02:31.467Z,13.25
2023-01-07T11:07:50.112Z,13.31
2023-01-07T11:12:56.906Z,13.37
2023-01-07T11:18:13.995Z,13.32
2023-01-07T11:23:38.839Z,13.21
2023-01-07T11:28:48.571Z,13.23
2023-01-07T11:34:01.425Z,13.32
2023-01-07T11:39:20.065Z,13.19
2023-01-07T11:44:22.194Z,13.09
2023-01-07T11:49:30.005Z,13.01
2023-01-07T11:54:32.855Z,12.91
2023-01-07T11:59:34.706Z,12.88
2023-01-07T12:04:37.376Z,12.80
2023-01-07T12:09:41.103Z,12.84
2023-01-07T12:14:47.559Z,13.06
2023-01-07T12:20:01.227Z,13.22
2023-01-07T12:25:24.371Z,13.42
2023-01-07T12:30:54.810Z,13.60
2023-01-07T12:36:16.799Z,13.77
2023-01-07T12:41:28.395Z,13.77
2023-01-07T12:46:40.754Z,14.08
2023-01-07T12:52:12.659Z,16.44
2023-01-07T12:57:22.155Z,19.31
2023-01-07T13:02:59.331Z,20.01
2023-01-07T13:08:20.180Z,20.55
2023-01-07T13:13:34.678Z,20.56
2023-01-07T13:18:36.712Z,20.31
2023-01-07T13:23:56.657Z,20.37
2023-01-07T13:29:37.887Z,19.73
2023-01-07T13:34:59.998Z,18.38
2023-01-07T13:40:01.784Z,16.64
2023-01-07T13:45:06.383Z,15.47
2023-01-07T13:50:19.553Z,15.04
2023-01-07T13:55:39.795Z,14.54
2023-01-07T14:01:00.531Z,14.29
2023-01-07T14:06:20.789Z,14.01
2023-01-07T14:11:32.602Z,14.09
2023-01-07T14:17:19.411Z,14.23
2023-01-07T14:22:27.036Z,14.25
2023-01-07T14:27:59.605Z,14.20
2023-01-07T14:33:04.076Z,13.95
2023-01-07T14:38:33.947Z,13.68
2023-01-07T14:43:51.731Z,13.54
2023-01-07T14:49:02.521Z,13.43
2023-01-07T14:54:41.950Z,13.32
2023-01-07T15:00:20.616Z,13.25
2023-01-07T15:05:53.270Z,13.10
2023-01-07T15:11:17.716Z,12.87
2023-01-07T15:16:22.160Z,12.78
2023-01-07T15:21:41.981Z,12.74
2023-01-07T15:26:49.748Z,12.66
2023-01-07T15:32:25.341Z,12.63
2023-01-07T15:37:27.270Z,12.57
2023-01-07T15:42:29.912Z,12.49
2023-01-07T15:47:36.079Z,12.38
2023-01-07T15:52:37.956Z,12.26
2023-01-07T15:57:39.877Z,12.11
2023-01-07T16:02:43.817Z,11.94
2023-01-07T16:07:48.401Z,11.86
2023-01-07T16:12:56.375Z,11.74
2023-01-07T16:18:03.866Z,11.57
2023-01-07T16:23:26.599Z,11.44
2023-01-07T16:28:37.183Z,11.36
2023-01-07T16:33:40.803Z,11.31
2023-01-07T16:38:45.500Z,11.23
2023-01-07T16:43:47.849Z,11.00
2023-01-07T16:49:17.885Z,10.87
2023-01-07T16:54:26.086Z,10.68
2023-01-07T16:59:31.800Z,10.53
2023-01-07T17:04:34.248Z,10.43
2023-01-07T17:09:39.146Z,10.29
2023-01-07T17:14:41.411Z,10.25
2023-01-07T17:19:53.029Z,10.09
2023-01-07T17:25:03.281Z,9.71
2023-01-07T17:30:06.143Z,9.45
2023-01-07T17:35:16.805Z,9.37
2023-01-07T17:40:20.653Z,9.43
2023-01-07T17:45:22.699Z,9.63
2023-01-07T17:50:27.742Z,9.65
2023-01-07T17:55:31.876Z,9.66
2023-01-07T18:00:36.095Z,9.56
2023-01-07T18:05:39.056Z,9.25
2023-01-07T18:11:00.840Z,9.04
2023-01-07T18:16:03.356Z,9.12
2023-01-07T18:21:05.548Z,9.15
2023-01-07T18:26:08.067Z,8.96
2023-01-07T18:31:10.737Z,8.84
2023-01-07T18:36:12.783Z,8.76
2023-01-07T18:41:15.035Z,8.71
2023-01-07T18:46:17.829Z,8.71
2023-01-07T18:51:20.441Z,8.74
2023-01-07T18:56:22.734Z,8.74
2023-01-07T19:01:25.598Z,8.68
2023-01-07T19:06:27.931Z,8.71
2023-01-07T19:11:31.682Z,8.80
2023-01-07T19:16:33.735Z,8.85
2023-01-07T19:21:35.783Z,8.90
2023-01-07T19:26:37.850Z,8.94
2023-01-07T19:31:40.557Z,8.90
2023-01-07T19:36:47.133Z,8.67
2023-01-07T19:41:50.152Z,8.59
2023-01-07T19:46:53.310Z,8.52
2023-01-07T19:51:56.224Z,8.48
2023-01-07T19:56:58.573Z,8.50
2023-01-07T20:02:02.368Z,8.44
2023-01-07T20:07:05.139Z,8.36
2023-01-07T20:12:08.227Z,8.38
2023-01-07T20:17:10.853Z,8.32
2023-01-07T20:22:12.905Z,8.33
2023-01-07T20:27:14.914Z,8.26
2023-01-07T20:32:19.008Z,8.24
2023-01-07T20:37:24.264Z,8.27
2023-01-07T20:42:27.175Z,8.33
2023-01-07T20:47:29.126Z,8.44
2023-01-07T20:52:31.077Z,8.56
2023-01-07T20:57:32.954Z,8.51
2023-01-07T21:02:34.936Z,8.43
2023-01-07T21:07:37.131Z,8.33
2023-01-07T21:12:39.199Z,8.29
2023-01-07T21:17:42.278Z,8.25
2023-01-07T21:22:48.252Z,8.12
2023-01-07T21:27:50.112Z,8.09
2023-01-07T21:32:51.976Z,8.15
2023-01-07T21:37:55.165Z,8.07
2023-01-07T21:42:57.020Z,8.06
2023-01-07T21:47:58.945Z,8.05
2023-01-07T21:53:00.861Z,7.98
2023-01-07T21:58:02.725Z,7.98
2023-01-07T22:03:05.088Z,7.95
2023-01-07T22:08:07.095Z,7.93
2023-01-07T22:13:08.978Z,7.90
2023-01-07T22:18:10.921Z,7.92
2023-01-07T22:23:19.889Z,7.95
2023-01-07T22:28:23.573Z,8.00
2023-01-07T22:33:25.495Z,8.04
2023-01-07T22:38:27.977Z,8.00
2023-01-07T22:43:30.351Z,8.01
2023-01-07T22:48:35.539Z,7.98
2023-01-07T22:53:37.595Z,8.00
2023-01-07T22:58:39.529Z,7.97
2023-01-07T23:03:42.956Z,7.93
2023-01-07T23:08:44.968Z,7.92
2023-01-07T23:13:46.829Z,7.86
2023-01-07T23:18:48.670Z,7.74
2023-01-07T23:23:50.503Z,7.72
2023-01-07T23:28:52.540Z,7.71
2023-01-07T23:33:54.472Z,7.64
2023-01-07T23:38:56.690Z,7.61
2023-01-07T23:43:58.563Z,7.60
2023-01-07T23:49:00.515Z,7.54
2023-01-07T23:54:02.368Z,7.51
2023-01-07T23:59:04.215Z,7.56
